^^
TXWeather Station Historical Data
Daily Summary for May 04, 2022 Units:  English    Metric   Both
Daily Weekly Monthly Yearly Custom
  High: Low: Average:
Temperature: 90.0 °F 75.0 °F 80.5 °F
Dew Point: 74.0 °F 70.0 °F 71.7 °F
Humidity: 90% 55% 76%
Wind Speed: 18mph 2mph 8.5mph
Wind Gust: 20mph - -
Wind- - SE
Pressure: 30.0 in 29.9 in -
Precipitation: 0.000 in    
Historical Graphs
 
 
Tabular Data for May 04, 2022
Time Temperature Dew Point Pressure Wind Wind Speed Wind Gust Humidity Rainfall Rate (Hourly) solar
00:04 77.0 °F 71.0 °F 30.0 in SE 3 mph 3 mph 81% 0.000 in 0.00 W/m2
00:09 77.0 °F 70.0 °F 30.0 in SE 2 mph 3 mph 81% 0.000 in 0.00 W/m2
00:14 77.0 °F 71.0 °F 30.0 in SE 3 mph 3 mph 82% 0.000 in 0.00 W/m2
00:19 77.0 °F 71.0 °F 30.0 in SE 3 mph 3 mph 82% 0.000 in 0.00 W/m2
00:24 77.0 °F 71.0 °F 30.0 in SE 4 mph 4 mph 82% 0.000 in 0.00 W/m2
00:29 77.0 °F 71.0 °F 30.0 in SE 2 mph 4 mph 82% 0.000 in 0.00 W/m2
00:34 76.0 °F 70.0 °F 30.0 in SE 2 mph 2 mph 82% 0.000 in 0.00 W/m2
00:39 76.0 °F 70.0 °F 30.0 in SE 3 mph 3 mph 82% 0.000 in 0.00 W/m2
00:44 76.0 °F 71.0 °F 30.0 in ESE 2 mph 4 mph 83% 0.000 in 0.00 W/m2
00:49 76.0 °F 71.0 °F 30.0 in SE 3 mph 4 mph 83% 0.000 in 0.00 W/m2
00:54 76.0 °F 71.0 °F 30.0 in SE 7 mph 7 mph 84% 0.000 in 0.00 W/m2
00:59 76.0 °F 71.0 °F 30.0 in SE 8 mph 8 mph 84% 0.000 in 0.00 W/m2
01:04 76.0 °F 71.0 °F 30.0 in SE 6 mph 8 mph 84% 0.000 in 0.00 W/m2
01:09 76.0 °F 71.0 °F 30.0 in SE 4 mph 8 mph 85% 0.000 in 0.00 W/m2
01:14 76.0 °F 71.0 °F 30.0 in SSE 6 mph 7 mph 85% 0.000 in 0.00 W/m2
01:19 76.0 °F 71.0 °F 30.0 in SE 5 mph 6 mph 85% 0.000 in 0.00 W/m2
01:24 77.0 °F 72.0 °F 30.0 in SE 4 mph 5 mph 85% 0.000 in 0.00 W/m2
01:29 77.0 °F 72.0 °F 30.0 in SSE 8 mph 8 mph 85% 0.000 in 0.00 W/m2
01:34 77.0 °F 72.0 °F 30.0 in SE 5 mph 6 mph 85% 0.000 in 0.00 W/m2
01:39 77.0 °F 72.0 °F 30.0 in SE 4 mph 4 mph 85% 0.000 in 0.00 W/m2
01:44 77.0 °F 72.0 °F 30.0 in SE 7 mph 7 mph 85% 0.000 in 0.00 W/m2
01:49 76.0 °F 71.0 °F 30.0 in SE 5 mph 7 mph 85% 0.000 in 0.00 W/m2
01:54 76.0 °F 71.0 °F 30.0 in SE 6 mph 7 mph 85% 0.000 in 0.00 W/m2
01:59 76.0 °F 71.0 °F 30.0 in SE 4 mph 7 mph 85% 0.000 in 0.00 W/m2
02:04 76.0 °F 71.0 °F 30.0 in SE 4 mph 4 mph 85% 0.000 in 0.00 W/m2
02:09 76.0 °F 71.0 °F 30.0 in SE 2 mph 4 mph 85% 0.000 in 0.00 W/m2
02:14 76.0 °F 71.0 °F 30.0 in SE 3 mph 4 mph 85% 0.000 in 0.00 W/m2
02:19 76.0 °F 71.0 °F 30.0 in SE 5 mph 6 mph 85% 0.000 in 0.00 W/m2
02:24 76.0 °F 71.0 °F 30.0 in SE 6 mph 6 mph 85% 0.000 in 0.00 W/m2
02:29 76.0 °F 71.0 °F 30.0 in SE 3 mph 6 mph 85% 0.000 in 0.00 W/m2
02:34 76.0 °F 71.0 °F 30.0 in SE 4 mph 4 mph 85% 0.000 in 0.00 W/m2
02:39 76.0 °F 72.0 °F 30.0 in ESE 4 mph 4 mph 86% 0.000 in 0.00 W/m2
02:44 76.0 °F 72.0 °F 30.0 in SE 3 mph 3 mph 86% 0.000 in 0.00 W/m2
02:49 76.0 °F 71.0 °F 30.0 in SE 3 mph 3 mph 86% 0.000 in 0.00 W/m2
02:54 76.0 °F 71.0 °F 30.0 in SE 3 mph 3 mph 86% 0.000 in 0.00 W/m2
02:59 76.0 °F 71.0 °F 30.0 in SE 4 mph 4 mph 86% 0.000 in 0.00 W/m2
03:04 76.0 °F 71.0 °F 30.0 in SE 3 mph 4 mph 86% 0.000 in 0.00 W/m2
03:09 76.0 °F 71.0 °F 30.0 in SE 3 mph 3 mph 86% 0.000 in 0.00 W/m2
03:14 76.0 °F 71.0 °F 29.9 in SE 2 mph 2 mph 86% 0.000 in 0.00 W/m2
03:19 76.0 °F 71.0 °F 29.9 in ESE 3 mph 3 mph 86% 0.000 in 0.00 W/m2
03:24 76.0 °F 71.0 °F 30.0 in ESE 2 mph 2 mph 86% 0.000 in 0.00 W/m2
03:29 76.0 °F 71.0 °F 30.0 in East 3 mph 3 mph 86% 0.000 in 0.00 W/m2
03:34 76.0 °F 71.0 °F 30.0 in SE 4 mph 4 mph 86% 0.000 in 0.00 W/m2
03:39 76.0 °F 71.0 °F 30.0 in ESE 3 mph 3 mph 86% 0.000 in 0.00 W/m2
03:44 76.0 °F 71.0 °F 30.0 in ESE 3 mph 4 mph 86% 0.000 in 0.00 W/m2
03:49 75.0 °F 71.0 °F 30.0 in SE 2 mph 3 mph 86% 0.000 in 0.00 W/m2
03:54 75.0 °F 71.0 °F 30.0 in SE 3 mph 3 mph 86% 0.000 in 0.00 W/m2
03:59 75.0 °F 71.0 °F 30.0 in SE 4 mph 4 mph 87% 0.000 in 0.00 W/m2
04:04 75.0 °F 71.0 °F 30.0 in ESE 2 mph 3 mph 87% 0.000 in 0.00 W/m2
04:09 75.0 °F 71.0 °F 30.0 in ESE 3 mph 4 mph 87% 0.000 in 0.00 W/m2
04:14 75.0 °F 71.0 °F 30.0 in ESE 2 mph 2 mph 87% 0.000 in 0.00 W/m2
04:19 75.0 °F 71.0 °F 30.0 in ESE 2 mph 2 mph 87% 0.000 in 0.00 W/m2
04:24 75.0 °F 71.0 °F 30.0 in SE 3 mph 3 mph 87% 0.000 in 0.00 W/m2
04:29 75.0 °F 71.0 °F 30.0 in SE 3 mph 3 mph 87% 0.000 in 0.00 W/m2
04:34 75.0 °F 71.0 °F 30.0 in SE 2 mph 2 mph 87% 0.000 in 0.00 W/m2
04:39 75.0 °F 71.0 °F 30.0 in SE 3 mph 3 mph 87% 0.000 in 0.00 W/m2
04:44 75.0 °F 71.0 °F 30.0 in SE 2 mph 3 mph 87% 0.000 in 0.00 W/m2
04:49 75.0 °F 71.0 °F 30.0 in SE 4 mph 4 mph 88% 0.000 in 0.00 W/m2
04:54 75.0 °F 71.0 °F 30.0 in SE 2 mph 2 mph 88% 0.000 in 0.00 W/m2
04:59 75.0 °F 71.0 °F 30.0 in SE 3 mph 3 mph 88% 0.000 in 0.00 W/m2
05:04 75.0 °F 71.0 °F 30.0 in SE 3 mph 3 mph 88% 0.000 in 0.00 W/m2
05:09 75.0 °F 71.0 °F 30.0 in SE 3 mph 3 mph 88% 0.000 in 0.00 W/m2
05:14 75.0 °F 71.0 °F 30.0 in SE 2 mph 3 mph 88% 0.000 in 0.00 W/m2
05:19 75.0 °F 71.0 °F 30.0 in ESE 3 mph 3 mph 88% 0.000 in 0.00 W/m2
05:24 75.0 °F 71.0 °F 30.0 in ESE 3 mph 3 mph 88% 0.000 in 0.00 W/m2
05:29 75.0 °F 71.0 °F 30.0 in ENE 2 mph 3 mph 88% 0.000 in 0.00 W/m2
05:34 75.0 °F 71.0 °F 30.0 in ESE 2 mph 4 mph 89% 0.000 in 0.00 W/m2
05:44 75.0 °F 71.0 °F 30.0 in SE 3 mph 3 mph 89% 0.000 in 0.00 W/m2
05:49 75.0 °F 71.0 °F 30.0 in SE 5 mph 6 mph 89% 0.000 in 0.00 W/m2
05:54 75.0 °F 71.0 °F 30.0 in ESE 2 mph 6 mph 89% 0.000 in 0.00 W/m2
05:59 75.0 °F 71.0 °F 30.0 in ESE 2 mph 3 mph 89% 0.000 in 0.00 W/m2
06:04 75.0 °F 71.0 °F 30.0 in ESE 2 mph 3 mph 89% 0.000 in 0.00 W/m2
06:09 75.0 °F 71.0 °F 30.0 in ESE 3 mph 3 mph 89% 0.000 in 0.00 W/m2
06:14 75.0 °F 71.0 °F 30.0 in ESE 3 mph 3 mph 89% 0.000 in 0.00 W/m2
06:19 75.0 °F 71.0 °F 30.0 in ESE 3 mph 3 mph 89% 0.000 in 0.00 W/m2
06:24 75.0 °F 71.0 °F 30.0 in ESE 3 mph 3 mph 89% 0.000 in 0.00 W/m2
06:29 75.0 °F 71.0 °F 30.0 in SE 4 mph 4 mph 89% 0.000 in 0.00 W/m2
06:34 75.0 °F 71.0 °F 30.0 in SE 5 mph 5 mph 89% 0.000 in 0.00 W/m2
06:39 75.0 °F 71.0 °F 30.0 in SE 4 mph 4 mph 89% 0.000 in 0.00 W/m2
06:44 75.0 °F 71.0 °F 30.0 in SE 3 mph 4 mph 89% 0.000 in 0.00 W/m2
06:49 75.0 °F 71.0 °F 30.0 in SE 3 mph 4 mph 89% 0.000 in 7.00 W/m2
06:54 75.0 °F 71.0 °F 30.0 in SE 2 mph 3 mph 89% 0.000 in 11.00 W/m2
06:59 75.0 °F 72.0 °F 30.0 in SE 5 mph 5 mph 90% 0.000 in 11.00 W/m2
07:04 75.0 °F 72.0 °F 30.0 in SE 6 mph 6 mph 90% 0.000 in 14.00 W/m2
07:09 75.0 °F 72.0 °F 30.0 in ESE 4 mph 4 mph 90% 0.000 in 21.00 W/m2
07:14 75.0 °F 72.0 °F 30.0 in ESE 3 mph 4 mph 90% 0.000 in 25.00 W/m2
07:19 75.0 °F 72.0 °F 30.0 in SE 4 mph 5 mph 90% 0.000 in 25.00 W/m2
07:24 75.0 °F 72.0 °F 30.0 in SE 3 mph 3 mph 90% 0.000 in 35.00 W/m2
07:29 75.0 °F 72.0 °F 30.0 in ESE 3 mph 4 mph 90% 0.000 in 44.00 W/m2
07:34 75.0 °F 72.0 °F 30.0 in SE 4 mph 5 mph 90% 0.000 in 37.00 W/m2
07:39 75.0 °F 72.0 °F 30.0 in SE 5 mph 6 mph 90% 0.000 in 44.00 W/m2
07:44 75.0 °F 72.0 °F 30.0 in SE 7 mph 7 mph 90% 0.000 in 72.00 W/m2
07:49 76.0 °F 73.0 °F 30.0 in SE 4 mph 7 mph 90% 0.000 in 72.00 W/m2
07:54 76.0 °F 73.0 °F 30.0 in SE 4 mph 4 mph 90% 0.000 in 114.00 W/m2
07:59 76.0 °F 73.0 °F 30.0 in SE 7 mph 9 mph 90% 0.000 in 114.00 W/m2
08:04 76.0 °F 73.0 °F 30.0 in SE 8 mph 8 mph 90% 0.000 in 135.00 W/m2
08:09 76.0 °F 73.0 °F 30.0 in SE 10 mph 10 mph 90% 0.000 in 134.00 W/m2
08:14 77.0 °F 73.0 °F 30.0 in SE 9 mph 11 mph 90% 0.000 in 121.00 W/m2
08:24 77.0 °F 73.0 °F 30.0 in SE 10 mph 12 mph 90% 0.000 in 167.00 W/m2
08:29 77.0 °F 74.0 °F 30.0 in SE 11 mph 12 mph 90% 0.000 in 214.00 W/m2
08:34 77.0 °F 74.0 °F 30.0 in SE 7 mph 11 mph 89% 0.000 in 200.00 W/m2
08:39 77.0 °F 74.0 °F 30.0 in SE 12 mph 13 mph 89% 0.000 in 193.00 W/m2
08:44 77.0 °F 74.0 °F 30.0 in SE 8 mph 10 mph 88% 0.000 in 207.00 W/m2
08:49 78.0 °F 74.0 °F 30.0 in SE 9 mph 9 mph 88% 0.000 in 199.00 W/m2
08:54 78.0 °F 74.0 °F 30.0 in SSE 12 mph 15 mph 87% 0.000 in 183.00 W/m2
08:59 78.0 °F 74.0 °F 30.0 in SE 13 mph 15 mph 86% 0.000 in 316.00 W/m2
09:04 79.0 °F 73.0 °F 30.0 in SE 11 mph 11 mph 85% 0.000 in 346.00 W/m2
09:09 79.0 °F 73.0 °F 30.0 in SE 15 mph 16 mph 84% 0.000 in 345.00 W/m2
09:14 79.0 °F 73.0 °F 30.0 in SSE 10 mph 13 mph 82% 0.000 in 352.00 W/m2
09:19 80.0 °F 74.0 °F 30.0 in SE 9 mph 10 mph 82% 0.000 in 420.00 W/m2
09:24 80.0 °F 74.0 °F 30.0 in SE 10 mph 10 mph 81% 0.000 in 185.00 W/m2
09:29 80.0 °F 74.0 °F 30.0 in SE 8 mph 9 mph 80% 0.000 in 258.00 W/m2
09:34 80.0 °F 73.0 °F 30.0 in SSE 5 mph 10 mph 79% 0.000 in 193.00 W/m2
09:39 81.0 °F 73.0 °F 30.0 in SSE 8 mph 10 mph 79% 0.000 in 244.00 W/m2
09:44 81.0 °F 73.0 °F 30.0 in SSE 8 mph 10 mph 78% 0.000 in 297.00 W/m2
09:49 81.0 °F 73.0 °F 30.0 in SSE 9 mph 9 mph 78% 0.000 in 197.00 W/m2
09:54 81.0 °F 74.0 °F 30.0 in SE 7 mph 9 mph 78% 0.000 in 524.00 W/m2
09:59 81.0 °F 73.0 °F 30.0 in SSE 10 mph 13 mph 77% 0.000 in 237.00 W/m2
10:04 81.0 °F 73.0 °F 30.0 in SSE 9 mph 13 mph 76% 0.000 in 183.00 W/m2
10:09 81.0 °F 73.0 °F 30.0 in SSE 10 mph 10 mph 76% 0.000 in 218.00 W/m2
10:14 82.0 °F 73.0 °F 30.0 in SSE 10 mph 11 mph 76% 0.000 in 497.00 W/m2
10:19 82.0 °F 73.0 °F 30.0 in SSE 11 mph 11 mph 76% 0.000 in 294.00 W/m2
10:24 82.0 °F 73.0 °F 30.0 in SE 10 mph 10 mph 75% 0.000 in 401.00 W/m2
10:29 82.0 °F 73.0 °F 30.0 in SE 8 mph 10 mph 75% 0.000 in 432.00 W/m2
10:34 82.0 °F 74.0 °F 30.0 in SE 10 mph 10 mph 75% 0.000 in 425.00 W/m2
10:39 82.0 °F 74.0 °F 30.0 in SE 10 mph 11 mph 75% 0.000 in 250.00 W/m2
10:44 83.0 °F 73.0 °F 30.0 in SSE 10 mph 10 mph 74% 0.000 in 343.00 W/m2
10:49 83.0 °F 73.0 °F 30.0 in SE 10 mph 11 mph 74% 0.000 in 343.00 W/m2
10:54 83.0 °F 73.0 °F 30.0 in SE 11 mph 11 mph 73% 0.000 in 227.00 W/m2
10:59 83.0 °F 73.0 °F 30.0 in SSE 11 mph 11 mph 72% 0.000 in 339.00 W/m2
11:04 83.0 °F 73.0 °F 30.0 in SSE 10 mph 10 mph 73% 0.000 in 272.00 W/m2
11:09 83.0 °F 73.0 °F 30.0 in SE 11 mph 12 mph 72% 0.000 in 339.00 W/m2
11:14 83.0 °F 73.0 °F 30.0 in SE 11 mph 13 mph 71% 0.000 in 250.00 W/m2
11:19 83.0 °F 73.0 °F 30.0 in SE 14 mph 14 mph 71% 0.000 in 302.00 W/m2
11:24 83.0 °F 73.0 °F 30.0 in SE 13 mph 14 mph 71% 0.000 in 288.00 W/m2
11:29 83.0 °F 73.0 °F 30.0 in SE 13 mph 15 mph 71% 0.000 in 960.00 W/m2
11:34 84.0 °F 73.0 °F 30.0 in SSE 14 mph 16 mph 71% 0.000 in 960.00 W/m2
11:39 84.0 °F 74.0 °F 30.0 in SE 15 mph 16 mph 70% 0.000 in 891.00 W/m2
11:44 85.0 °F 74.0 °F 30.0 in SE 15 mph 15 mph 70% 0.000 in 925.00 W/m2
11:49 86.0 °F 74.0 °F 30.0 in SE 12 mph 16 mph 69% 0.000 in 925.00 W/m2
11:54 86.0 °F 74.0 °F 30.0 in SE 12 mph 14 mph 67% 0.000 in 993.00 W/m2
11:59 86.0 °F 73.0 °F 30.0 in SSE 12 mph 15 mph 66% 0.000 in 993.00 W/m2
12:04 86.0 °F 74.0 °F 30.0 in SE 15 mph 17 mph 67% 0.000 in 276.00 W/m2
12:09 86.0 °F 73.0 °F 30.0 in SE 13 mph 17 mph 65% 0.000 in 448.00 W/m2
12:14 86.0 °F 73.0 °F 30.0 in SE 9 mph 15 mph 66% 0.000 in 494.00 W/m2
12:19 86.0 °F 73.0 °F 30.0 in SE 16 mph 16 mph 65% 0.000 in 429.00 W/m2
12:24 86.0 °F 73.0 °F 30.0 in SE 10 mph 12 mph 65% 0.000 in 429.00 W/m2
12:29 86.0 °F 72.0 °F 30.0 in SE 11 mph 12 mph 65% 0.000 in 452.00 W/m2
12:34 86.0 °F 72.0 °F 30.0 in SE 12 mph 14 mph 65% 0.000 in 287.00 W/m2
12:39 86.0 °F 72.0 °F 30.0 in SSE 9 mph 11 mph 64% 0.000 in 410.00 W/m2
12:44 86.0 °F 72.0 °F 30.0 in SSE 15 mph 15 mph 65% 0.000 in 489.00 W/m2
12:49 86.0 °F 73.0 °F 30.0 in SE 13 mph 15 mph 64% 0.000 in 480.00 W/m2
12:54 86.0 °F 73.0 °F 30.0 in SSE 10 mph 12 mph 64% 0.000 in 338.00 W/m2
12:59 86.0 °F 73.0 °F 30.0 in SSE 12 mph 12 mph 64% 0.000 in 352.00 W/m2
13:04 86.0 °F 72.0 °F 30.0 in SE 12 mph 15 mph 64% 0.000 in 353.00 W/m2
13:09 86.0 °F 72.0 °F 30.0 in SSE 12 mph 12 mph 64% 0.000 in 454.00 W/m2
13:14 86.0 °F 72.0 °F 30.0 in SE 11 mph 14 mph 64% 0.000 in 503.00 W/m2
13:19 86.0 °F 72.0 °F 30.0 in SE 14 mph 14 mph 64% 0.000 in 496.00 W/m2
13:24 86.0 °F 72.0 °F 30.0 in SSE 10 mph 11 mph 64% 0.000 in 306.00 W/m2
13:29 86.0 °F 72.0 °F 30.0 in SE 9 mph 13 mph 64% 0.000 in 411.00 W/m2
13:39 86.0 °F 72.0 °F 30.0 in SE 12 mph 15 mph 63% 0.000 in 399.00 W/m2
13:44 87.0 °F 72.0 °F 30.0 in SSE 12 mph 18 mph 62% 0.000 in 1195.00 W/m2
13:49 87.0 °F 73.0 °F 30.0 in SSE 13 mph 18 mph 63% 0.000 in 1195.00 W/m2
13:54 88.0 °F 73.0 °F 30.0 in SSE 13 mph 13 mph 61% 0.000 in 1097.00 W/m2
13:59 88.0 °F 73.0 °F 30.0 in SSE 14 mph 14 mph 61% 0.000 in 1093.00 W/m2
14:04 88.0 °F 72.0 °F 30.0 in SE 14 mph 20 mph 60% 0.000 in 1229.00 W/m2
14:09 88.0 °F 71.0 °F 30.0 in SSE 16 mph 17 mph 57% 0.000 in 1148.00 W/m2
14:14 88.0 °F 71.0 °F 30.0 in SE 18 mph 18 mph 57% 0.000 in 385.00 W/m2
14:19 88.0 °F 71.0 °F 30.0 in SE 10 mph 13 mph 58% 0.000 in 380.00 W/m2
14:24 88.0 °F 72.0 °F 30.0 in SE 14 mph 14 mph 60% 0.000 in 1085.00 W/m2
14:29 88.0 °F 71.0 °F 30.0 in SE 16 mph 16 mph 58% 0.000 in 1079.00 W/m2
14:34 89.0 °F 71.0 °F 30.0 in SE 13 mph 14 mph 57% 0.000 in 1079.00 W/m2
14:39 89.0 °F 71.0 °F 30.0 in SSE 12 mph 18 mph 56% 0.000 in 1120.00 W/m2
14:44 89.0 °F 71.0 °F 30.0 in SSE 16 mph 18 mph 56% 0.000 in 1120.00 W/m2
14:49 89.0 °F 71.0 °F 30.0 in SSE 12 mph 12 mph 56% 0.000 in 1067.00 W/m2
14:54 89.0 °F 71.0 °F 30.0 in SSE 15 mph 15 mph 55% 0.000 in 1067.00 W/m2
14:59 89.0 °F 70.0 °F 30.0 in SE 14 mph 15 mph 55% 0.000 in 392.00 W/m2
15:04 88.0 °F 70.0 °F 30.0 in SE 13 mph 14 mph 55% 0.000 in 306.00 W/m2
15:09 88.0 °F 70.0 °F 30.0 in SE 13 mph 15 mph 55% 0.000 in 311.00 W/m2
15:14 88.0 °F 70.0 °F 30.0 in SE 13 mph 16 mph 55% 0.000 in 1081.00 W/m2
15:19 89.0 °F 70.0 °F 30.0 in SSE 10 mph 10 mph 55% 0.000 in 1062.00 W/m2
15:24 89.0 °F 71.0 °F 30.0 in SSE 12 mph 12 mph 55% 0.000 in 1020.00 W/m2
15:29 89.0 °F 71.0 °F 29.9 in SE 14 mph 15 mph 56% 0.000 in 974.00 W/m2
15:34 90.0 °F 72.0 °F 29.9 in SSE 16 mph 19 mph 56% 0.000 in 930.00 W/m2
15:39 89.0 °F 71.0 °F 29.9 in SE 11 mph 13 mph 56% 0.000 in 969.00 W/m2
15:44 89.0 °F 71.0 °F 29.9 in SE 11 mph 13 mph 57% 0.000 in 336.00 W/m2
15:49 89.0 °F 72.0 °F 29.9 in SE 13 mph 15 mph 59% 0.000 in 842.00 W/m2
15:54 88.0 °F 72.0 °F 29.9 in SSE 17 mph 19 mph 59% 0.000 in 837.00 W/m2
15:59 88.0 °F 72.0 °F 29.9 in SE 14 mph 15 mph 59% 0.000 in 327.00 W/m2
16:04 88.0 °F 72.0 °F 29.9 in SE 17 mph 17 mph 59% 0.000 in 327.00 W/m2
16:14 87.0 °F 72.0 °F 29.9 in SE 17 mph 17 mph 60% 0.000 in 267.00 W/m2
16:19 87.0 °F 72.0 °F 29.9 in SE 17 mph 17 mph 61% 0.000 in 756.00 W/m2
16:24 87.0 °F 72.0 °F 29.9 in SE 12 mph 15 mph 61% 0.000 in 756.00 W/m2
16:29 87.0 °F 72.0 °F 29.9 in SE 14 mph 14 mph 60% 0.000 in 712.00 W/m2
16:34 87.0 °F 72.0 °F 29.9 in SE 12 mph 15 mph 61% 0.000 in 754.00 W/m2
16:39 87.0 °F 72.0 °F 29.9 in SE 14 mph 18 mph 60% 0.000 in 207.00 W/m2
16:44 87.0 °F 71.0 °F 29.9 in SE 17 mph 18 mph 60% 0.000 in 213.00 W/m2
16:49 87.0 °F 71.0 °F 29.9 in SE 13 mph 18 mph 61% 0.000 in 309.00 W/m2
16:54 86.0 °F 72.0 °F 29.9 in SE 15 mph 15 mph 62% 0.000 in 309.00 W/m2
16:59 86.0 °F 72.0 °F 29.9 in SE 12 mph 15 mph 62% 0.000 in 267.00 W/m2
17:04 86.0 °F 72.0 °F 29.9 in SE 15 mph 18 mph 62% 0.000 in 309.00 W/m2
17:09 86.0 °F 72.0 °F 29.9 in SSE 10 mph 18 mph 63% 0.000 in 334.00 W/m2
17:14 86.0 °F 72.0 °F 29.9 in SSE 10 mph 14 mph 63% 0.000 in 216.00 W/m2
17:19 86.0 °F 72.0 °F 29.9 in SE 10 mph 14 mph 63% 0.000 in 202.00 W/m2
17:24 86.0 °F 71.0 °F 29.9 in SE 12 mph 12 mph 62% 0.000 in 181.00 W/m2
17:29 86.0 °F 71.0 °F 29.9 in SSE 10 mph 12 mph 62% 0.000 in 155.00 W/m2
17:34 86.0 °F 71.0 °F 29.9 in SE 10 mph 11 mph 63% 0.000 in 223.00 W/m2
17:39 86.0 °F 71.0 °F 29.9 in SE 11 mph 15 mph 63% 0.000 in 214.00 W/m2
17:44 85.0 °F 71.0 °F 29.9 in SSE 11 mph 15 mph 63% 0.000 in 220.00 W/m2
17:49 86.0 °F 71.0 °F 29.9 in SSE 13 mph 14 mph 63% 0.000 in 239.00 W/m2
17:54 86.0 °F 71.0 °F 29.9 in SE 12 mph 14 mph 63% 0.000 in 246.00 W/m2
17:59 86.0 °F 71.0 °F 29.9 in SE 14 mph 14 mph 62% 0.000 in 204.00 W/m2
18:04 86.0 °F 71.0 °F 29.9 in SE 11 mph 14 mph 62% 0.000 in 385.00 W/m2
18:09 86.0 °F 71.0 °F 29.9 in SE 13 mph 14 mph 62% 0.000 in 359.00 W/m2
18:14 86.0 °F 71.0 °F 29.9 in SE 17 mph 17 mph 62% 0.000 in 239.00 W/m2
18:19 86.0 °F 71.0 °F 29.9 in SSE 10 mph 17 mph 62% 0.000 in 309.00 W/m2
18:24 85.0 °F 71.0 °F 29.9 in SE 11 mph 12 mph 63% 0.000 in 116.00 W/m2
18:29 85.0 °F 71.0 °F 29.9 in SE 13 mph 13 mph 63% 0.000 in 283.00 W/m2
18:34 85.0 °F 71.0 °F 29.9 in SE 11 mph 13 mph 64% 0.000 in 142.00 W/m2
18:39 85.0 °F 71.0 °F 29.9 in SE 15 mph 15 mph 64% 0.000 in 207.00 W/m2
18:44 84.0 °F 72.0 °F 29.9 in SE 13 mph 13 mph 66% 0.000 in 156.00 W/m2
18:49 84.0 °F 72.0 °F 29.9 in SE 12 mph 12 mph 67% 0.000 in 151.00 W/m2
18:54 84.0 °F 72.0 °F 29.9 in SE 13 mph 13 mph 67% 0.000 in 116.00 W/m2
18:59 84.0 °F 72.0 °F 29.9 in SE 13 mph 14 mph 68% 0.000 in 135.00 W/m2
19:04 84.0 °F 72.0 °F 29.9 in SE 10 mph 13 mph 69% 0.000 in 77.00 W/m2
19:09 83.0 °F 73.0 °F 29.9 in SE 9 mph 11 mph 70% 0.000 in 28.00 W/m2
19:14 83.0 °F 72.0 °F 29.9 in SE 10 mph 11 mph 70% 0.000 in 32.00 W/m2
19:19 83.0 °F 72.0 °F 29.9 in SE 10 mph 10 mph 71% 0.000 in 26.00 W/m2
19:24 83.0 °F 72.0 °F 29.9 in SE 12 mph 12 mph 71% 0.000 in 26.00 W/m2
19:29 82.0 °F 72.0 °F 29.9 in SE 10 mph 12 mph 72% 0.000 in 23.00 W/m2
19:34 82.0 °F 72.0 °F 29.9 in SE 11 mph 11 mph 72% 0.000 in 21.00 W/m2
19:39 82.0 °F 72.0 °F 29.9 in SE 10 mph 10 mph 73% 0.000 in 19.00 W/m2
19:44 81.0 °F 72.0 °F 29.9 in SE 8 mph 9 mph 73% 0.000 in 16.00 W/m2
19:49 81.0 °F 71.0 °F 29.9 in SE 12 mph 12 mph 73% 0.000 in 12.00 W/m2
19:54 81.0 °F 72.0 °F 29.9 in SE 12 mph 13 mph 74% 0.000 in 7.00 W/m2
19:59 80.0 °F 71.0 °F 29.9 in SE 10 mph 10 mph 74% 0.000 in 0.00 W/m2
20:04 80.0 °F 71.0 °F 29.9 in SE 12 mph 12 mph 75% 0.000 in 0.00 W/m2
20:09 80.0 °F 71.0 °F 29.9 in SE 11 mph 12 mph 75% 0.000 in 0.00 W/m2
20:14 80.0 °F 71.0 °F 29.9 in SE 11 mph 11 mph 75% 0.000 in 0.00 W/m2
20:19 80.0 °F 71.0 °F 30.0 in SE 12 mph 12 mph 76% 0.000 in 0.00 W/m2
20:24 79.0 °F 71.0 °F 29.9 in SE 9 mph 9 mph 76% 0.000 in 0.00 W/m2
20:29 79.0 °F 71.0 °F 30.0 in SE 8 mph 11 mph 76% 0.000 in 0.00 W/m2
20:34 79.0 °F 71.0 °F 30.0 in SE 7 mph 8 mph 77% 0.000 in 0.00 W/m2
20:39 79.0 °F 71.0 °F 29.9 in SE 9 mph 9 mph 77% 0.000 in 0.00 W/m2
20:44 79.0 °F 71.0 °F 30.0 in SE 10 mph 10 mph 77% 0.000 in 0.00 W/m2
20:49 79.0 °F 71.0 °F 30.0 in SE 9 mph 9 mph 78% 0.000 in 0.00 W/m2
20:54 78.0 °F 71.0 °F 29.9 in SE 8 mph 11 mph 78% 0.000 in 0.00 W/m2
20:59 78.0 °F 71.0 °F 30.0 in SE 7 mph 7 mph 78% 0.000 in 0.00 W/m2
21:04 78.0 °F 71.0 °F 30.0 in SE 7 mph 8 mph 78% 0.000 in 0.00 W/m2
21:09 78.0 °F 71.0 °F 29.9 in SE 9 mph 9 mph 78% 0.000 in 0.00 W/m2
21:14 78.0 °F 71.0 °F 29.9 in SE 9 mph 10 mph 79% 0.000 in 0.00 W/m2
21:19 78.0 °F 71.0 °F 29.9 in SE 7 mph 7 mph 79% 0.000 in 0.00 W/m2
21:24 78.0 °F 71.0 °F 29.9 in SE 7 mph 7 mph 79% 0.000 in 0.00 W/m2
21:29 78.0 °F 71.0 °F 29.9 in SE 9 mph 9 mph 79% 0.000 in 0.00 W/m2
21:34 78.0 °F 71.0 °F 29.9 in SE 12 mph 12 mph 79% 0.000 in 0.00 W/m2
21:39 78.0 °F 71.0 °F 29.9 in SE 10 mph 13 mph 79% 0.000 in 0.00 W/m2
21:44 78.0 °F 70.0 °F 29.9 in SE 13 mph 14 mph 78% 0.000 in 0.00 W/m2
21:49 78.0 °F 70.0 °F 29.9 in SE 13 mph 14 mph 78% 0.000 in 0.00 W/m2
21:54 78.0 °F 70.0 °F 29.9 in SE 10 mph 14 mph 78% 0.000 in 0.00 W/m2
21:59 78.0 °F 70.0 °F 29.9 in SE 9 mph 9 mph 78% 0.000 in 0.00 W/m2
22:04 78.0 °F 70.0 °F 29.9 in SE 12 mph 13 mph 78% 0.000 in 0.00 W/m2
22:09 78.0 °F 70.0 °F 29.9 in SE 12 mph 12 mph 78% 0.000 in 0.00 W/m2
22:14 78.0 °F 70.0 °F 29.9 in SE 12 mph 12 mph 78% 0.000 in 0.00 W/m2
22:19 78.0 °F 70.0 °F 29.9 in SE 8 mph 12 mph 78% 0.000 in 0.00 W/m2
22:24 78.0 °F 71.0 °F 29.9 in SE 7 mph 10 mph 79% 0.000 in 0.00 W/m2
22:29 78.0 °F 71.0 °F 29.9 in SE 11 mph 12 mph 79% 0.000 in 0.00 W/m2
22:34 78.0 °F 71.0 °F 29.9 in SE 9 mph 11 mph 79% 0.000 in 0.00 W/m2
22:39 78.0 °F 71.0 °F 29.9 in SE 7 mph 9 mph 79% 0.000 in 0.00 W/m2
22:44 78.0 °F 71.0 °F 30.0 in SE 5 mph 7 mph 79% 0.000 in 0.00 W/m2
22:49 78.0 °F 71.0 °F 30.0 in SE 8 mph 8 mph 79% 0.000 in 0.00 W/m2
22:54 78.0 °F 71.0 °F 30.0 in SE 7 mph 9 mph 79% 0.000 in 0.00 W/m2
22:59 78.0 °F 71.0 °F 30.0 in SE 7 mph 7 mph 79% 0.000 in 0.00 W/m2
23:04 78.0 °F 71.0 °F 30.0 in SE 7 mph 10 mph 79% 0.000 in 0.00 W/m2
23:09 78.0 °F 71.0 °F 30.0 in SSE 5 mph 7 mph 80% 0.000 in 0.00 W/m2
23:14 78.0 °F 71.0 °F 30.0 in SE 8 mph 8 mph 80% 0.000 in 0.00 W/m2
23:19 78.0 °F 71.0 °F 30.0 in SE 8 mph 9 mph 80% 0.000 in 0.00 W/m2
23:24 78.0 °F 71.0 °F 30.0 in SE 9 mph 9 mph 80% 0.000 in 0.00 W/m2
23:29 78.0 °F 71.0 °F 30.0 in SE 11 mph 11 mph 80% 0.000 in 0.00 W/m2
23:34 78.0 °F 71.0 °F 30.0 in SE 8 mph 8 mph 80% 0.000 in 0.00 W/m2
23:39 78.0 °F 71.0 °F 30.0 in SE 7 mph 7 mph 80% 0.000 in 0.00 W/m2
23:44 78.0 °F 71.0 °F 30.0 in SE 9 mph 9 mph 80% 0.000 in 0.00 W/m2
23:49 78.0 °F 71.0 °F 30.0 in SE 7 mph 8 mph 79% 0.000 in 0.00 W/m2
23:54 78.0 °F 71.0 °F 30.0 in SE 3 mph 5 mph 79% 0.000 in 0.00 W/m2
23:59 78.0 °F 71.0 °F 30.0 in ESE 3 mph 3 mph 79% 0.000 in 0.00 W/m2
Villages of Bridgestone, Spring, TX USA
Compliments of Weather Underground - 4 mb